Arcadia, IN

3:24 AM EDT on August 28, 2016 (GMT -0400)
Becks Corporate | | Change Station

Elev 866 ft 40.19 °N, 86.05 °W | Updated 4 minutes ago

Fog
Fog
72.5 °F
Feels Like 72.5 °F
N
1.0
Wind Variable Wind from SE
Gusts 2.0 mph

Today
High -- | Low -- °F
--% Chance of Precip.
Yesterday
High -- | Low -- °F
Precip. -- in
Pressure 30.15 in
Visibility 0.2 miles
Clouds
Dew Point 71 °F
Humidity 95%
Rainfall 0.00 in
Snow Depth Not available.
7:08 AM 8:21 PM
Waning Crescent, 18% visible
METAR KTYQ 280715Z AUTO 00000KT 1/4SM FG VV002 19/19 A3015 RMK AO2 T01930192
Pressure 30.15 in
Visibility 0.2 miles
Clouds
Dew Point 71 °F
Humidity 95%
Rainfall 0.00 in
Snow Depth Not available.
7:08 AM 8:21 PM
Waning Crescent, 18% visible
METAR KTYQ 280715Z AUTO 00000KT 1/4SM FG VV002 19/19 A3015 RMK AO2 T01930192

10-Day Weather Forecast

Almanac

Astronomy

Aug. 28, 2016 Rise Set
Actual Time
Civil Twilight
Nautical Twilight
Astronomical Twilight
Moon
Length of Visible Light
Length of Day
Tomorrow will be .
, % of the Moon is Illuminated

Today's Extremes

State Highs State Lows

Community

WunderPhotos

Upload Photos

1,935,533 photos uploaded!

WunderBlog® & News

Nearby

Air Quality

  Air Quality AQ Index Pollutant
Not available.

Snow Depth

Station Depth Elevation

Earthquake Activity

City Distance Mag. Time & Date
Minimum magnitude displayed is 2.5.

Coastal Water Temperatures

Place Temperature

Stations

Nearby Weather Stations

Station Location Temp. Windchill Dew Point Humidity Wind Precip. Elev Updated Type
                   

Watches & Warnings

There are currently no watches in effect.